sensor_id;sensor_type;location;lat;lon;timestamp;pressure;altitude;pressure_sealevel;temperature;humidity
63006;BME280;53704;52.532;6.426;2022-09-28T00:01:36;99519.66;;;8.45;98.34
63006;BME280;53704;52.532;6.426;2022-09-28T00:04:02;99520.28;;;8.47;97.97
63006;BME280;53704;52.532;6.426;2022-09-28T00:06:28;99514.09;;;8.47;97.78
63006;BME280;53704;52.532;6.426;2022-09-28T00:08:55;99521.78;;;8.65;96.96
63006;BME280;53704;52.532;6.426;2022-09-28T00:11:22;99512.56;;;8.67;96.06
63006;BME280;53704;52.532;6.426;2022-09-28T00:13:52;99512.06;;;8.49;95.98
63006;BME280;53704;52.532;6.426;2022-09-28T00:16:23;99512.66;;;8.59;95.81
63006;BME280;53704;52.532;6.426;2022-09-28T00:18:50;99509.19;;;8.50;95.53
63006;BME280;53704;52.532;6.426;2022-09-28T00:21:20;99502.03;;;8.43;95.88
63006;BME280;53704;52.532;6.426;2022-09-28T00:23:46;99503.59;;;8.60;95.29
63006;BME280;53704;52.532;6.426;2022-09-28T00:26:32;99502.66;;;8.68;94.20
63006;BME280;53704;52.532;6.426;2022-09-28T00:28:59;99497.47;;;8.66;94.77
63006;BME280;53704;52.532;6.426;2022-09-28T00:31:31;99506.50;;;8.50;94.66
63006;BME280;53704;52.532;6.426;2022-09-28T00:33:57;99507.78;;;8.40;95.90
63006;BME280;53704;52.532;6.426;2022-09-28T00:36:25;99500.78;;;8.54;94.80
63006;BME280;53704;52.532;6.426;2022-09-28T00:38:55;99499.50;;;8.64;93.96
63006;BME280;53704;52.532;6.426;2022-09-28T00:41:25;99500.81;;;8.30;95.08
63006;BME280;53704;52.532;6.426;2022-09-28T00:43:52;99502.91;;;8.20;95.78
63006;BME280;53704;52.532;6.426;2022-09-28T00:46:36;99501.44;;;8.18;96.55
63006;BME280;53704;52.532;6.426;2022-09-28T00:49:04;99494.56;;;8.38;96.52
63006;BME280;53704;52.532;6.426;2022-09-28T00:51:37;99495.50;;;8.22;96.61
63006;BME280;53704;52.532;6.426;2022-09-28T00:54:06;99506.69;;;8.49;95.38
63006;BME280;53704;52.532;6.426;2022-09-28T00:56:34;99499.84;;;8.08;96.54
63006;BME280;53704;52.532;6.426;2022-09-28T00:59:02;99491.25;;;8.13;96.68
63006;BME280;53704;52.532;6.426;2022-09-28T01:01:29;99498.63;;;8.11;97.79
63006;BME280;53704;52.532;6.426;2022-09-28T01:03:57;99492.06;;;8.37;96.68
63006;BME280;53704;52.532;6.426;2022-09-28T01:06:27;99492.09;;;8.28;96.09
63006;BME280;53704;52.532;6.426;2022-09-28T01:08:57;99489.88;;;8.17;95.95
63006;BME280;53704;52.532;6.426;2022-09-28T01:11:24;99487.00;;;8.19;97.61
63006;BME280;53704;52.532;6.426;2022-09-28T01:13:51;99491.97;;;7.84;98.11
63006;BME280;53704;52.532;6.426;2022-09-28T01:21:50;99492.44;;;8.10;98.20
63006;BME280;53704;52.532;6.426;2022-09-28T01:27:21;99486.13;;;8.03;97.95
63006;BME280;53704;52.532;6.426;2022-09-28T01:32:36;99487.25;;;7.86;98.56
63006;BME280;53704;52.532;6.426;2022-09-28T01:35:15;99490.38;;;7.97;97.83
63006;BME280;53704;52.532;6.426;2022-09-28T01:37:55;99494.84;;;7.82;98.12
63006;BME280;53704;52.532;6.426;2022-09-28T01:40:26;99490.47;;;7.81;98.53
63006;BME280;53704;52.532;6.426;2022-09-28T01:43:06;99476.25;;;8.04;98.81
63006;BME280;53704;52.532;6.426;2022-09-28T01:45:43;99484.53;;;7.71;98.38
63006;BME280;53704;52.532;6.426;2022-09-28T01:48:12;99473.28;;;7.99;98.02
63006;BME280;53704;52.532;6.426;2022-09-28T01:50:43;99477.50;;;7.93;96.32
63006;BME280;53704;52.532;6.426;2022-09-28T01:53:17;99473.34;;;7.90;97.10
63006;BME280;53704;52.532;6.426;2022-09-28T01:55:47;99479.00;;;7.72;98.16
63006;BME280;53704;52.532;6.426;2022-09-28T01:58:20;99466.69;;;7.86;97.75
63006;BME280;53704;52.532;6.426;2022-09-28T02:00:52;99475.19;;;7.67;98.38
63006;BME280;53704;52.532;6.426;2022-09-28T02:03:24;99472.75;;;7.80;97.99
63006;BME280;53704;52.532;6.426;2022-09-28T02:05:56;99471.16;;;7.71;97.94
63006;BME280;53704;52.532;6.426;2022-09-28T02:11:14;99463.53;;;7.59;97.29
63006;BME280;53704;52.532;6.426;2022-09-28T02:13:43;99461.38;;;7.55;98.12
63006;BME280;53704;52.532;6.426;2022-09-28T02:18:58;99466.09;;;7.53;98.23
63006;BME280;53704;52.532;6.426;2022-09-28T02:21:31;99471.19;;;7.39;97.48
63006;BME280;53704;52.532;6.426;2022-09-28T02:24:11;99474.13;;;7.21;99.69
63006;BME280;53704;52.532;6.426;2022-09-28T02:26:42;99475.66;;;7.47;98.36
63006;BME280;53704;52.532;6.426;2022-09-28T02:29:09;99470.91;;;7.57;97.35
63006;BME280;53704;52.532;6.426;2022-09-28T02:31:34;99464.25;;;7.53;96.08
63006;BME280;53704;52.532;6.426;2022-09-28T02:34:00;99472.22;;;7.61;96.18
63006;BME280;53704;52.532;6.426;2022-09-28T02:36:27;99467.38;;;7.34;96.23
63006;BME280;53704;52.532;6.426;2022-09-28T02:38:53;99474.66;;;7.48;96.88
63006;BME280;53704;52.532;6.426;2022-09-28T02:42:15;99479.69;;;7.43;97.68
63006;BME280;53704;52.532;6.426;2022-09-28T02:45:02;99480.19;;;7.47;96.69
63006;BME280;53704;52.532;6.426;2022-09-28T02:53:19;99490.50;;;7.27;98.48
63006;BME280;53704;52.532;6.426;2022-09-28T02:56:04;99491.66;;;7.32;98.24
63006;BME280;53704;52.532;6.426;2022-09-28T03:06:36;99505.72;;;7.26;100.00
63006;BME280;53704;52.532;6.426;2022-09-28T03:09:22;99504.50;;;7.37;100.00
63006;BME280;53704;52.532;6.426;2022-09-28T03:11:55;99509.81;;;7.45;99.70
63006;BME280;53704;52.532;6.426;2022-09-28T03:14:23;99512.16;;;7.48;99.46
63006;BME280;53704;52.532;6.426;2022-09-28T03:16:48;99511.75;;;7.28;100.00
63006;BME280;53704;52.532;6.426;2022-09-28T03:19:16;99511.28;;;7.16;100.00
63006;BME280;53704;52.532;6.426;2022-09-28T03:21:44;99505.56;;;7.28;100.00
63006;BME280;53704;52.532;6.426;2022-09-28T03:24:10;99511.38;;;7.31;100.00
63006;BME280;53704;52.532;6.426;2022-09-28T03:26:37;99512.91;;;7.34;100.00
63006;BME280;53704;52.532;6.426;2022-09-28T03:29:03;99512.72;;;7.27;100.00
63006;BME280;53704;52.532;6.426;2022-09-28T03:31:28;99509.59;;;7.23;100.00
63006;BME280;53704;52.532;6.426;2022-09-28T03:33:53;99514.28;;;7.21;100.00
63006;BME280;53704;52.532;6.426;2022-09-28T03:36:19;99504.75;;;7.19;100.00
63006;BME280;53704;52.532;6.426;2022-09-28T03:38:45;99507.19;;;7.37;100.00
63006;BME280;53704;52.532;6.426;2022-09-28T03:41:10;99504.22;;;7.23;100.00
63006;BME280;53704;52.532;6.426;2022-09-28T03:43:36;99502.59;;;7.14;100.00
63006;BME280;53704;52.532;6.426;2022-09-28T03:46:01;99507.59;;;7.17;100.00
63006;BME280;53704;52.532;6.426;2022-09-28T03:48:29;99505.38;;;7.29;100.00
63006;BME280;53704;52.532;6.426;2022-09-28T03:50:57;99508.75;;;7.23;100.00
63006;BME280;53704;52.532;6.426;2022-09-28T03:53:23;99506.78;;;7.17;100.00
63006;BME280;53704;52.532;6.426;2022-09-28T03:55:49;99510.03;;;7.35;100.00
63006;BME280;53704;52.532;6.426;2022-09-28T03:58:20;99504.88;;;7.34;100.00
63006;BME280;53704;52.532;6.426;2022-09-28T04:00:47;99505.38;;;7.29;100.00
63006;BME280;53704;52.532;6.426;2022-09-28T04:03:13;99505.41;;;7.21;100.00
63006;BME280;53704;52.532;6.426;2022-09-28T04:05:38;99511.56;;;7.30;100.00
63006;BME280;53704;52.532;6.426;2022-09-28T04:08:04;99514.97;;;7.15;100.00
63006;BME280;53704;52.532;6.426;2022-09-28T04:10:29;99507.38;;;7.35;100.00
63006;BME280;53704;52.532;6.426;2022-09-28T04:12:58;99510.88;;;7.36;100.00
63006;BME280;53704;52.532;6.426;2022-09-28T04:15:23;99507.03;;;7.30;100.00
63006;BME280;53704;52.532;6.426;2022-09-28T04:17:50;99503.00;;;7.34;100.00
63006;BME280;53704;52.532;6.426;2022-09-28T04:20:15;99505.28;;;7.46;100.00
63006;BME280;53704;52.532;6.426;2022-09-28T04:22:41;99509.41;;;7.25;100.00
63006;BME280;53704;52.532;6.426;2022-09-28T04:25:07;99510.88;;;7.36;100.00
63006;BME280;53704;52.532;6.426;2022-09-28T04:27:32;99508.59;;;7.16;100.00
63006;BME280;53704;52.532;6.426;2022-09-28T04:30:16;99514.06;;;7.31;100.00
63006;BME280;53704;52.532;6.426;2022-09-28T04:32:42;99515.75;;;7.32;100.00
63006;BME280;53704;52.532;6.426;2022-09-28T04:35:08;99511.56;;;7.30;100.00
63006;BME280;53704;52.532;6.426;2022-09-28T04:37:38;99513.50;;;7.44;100.00
63006;BME280;53704;52.532;6.426;2022-09-28T04:40:04;99516.81;;;7.46;100.00
63006;BME280;53704;52.532;6.426;2022-09-28T04:42:30;99515.78;;;7.55;100.00
63006;BME280;53704;52.532;6.426;2022-09-28T04:44:55;99518.44;;;7.55;100.00
63006;BME280;53704;52.532;6.426;2022-09-28T04:47:23;99522.19;;;7.46;100.00
63006;BME280;53704;52.532;6.426;2022-09-28T04:49:48;99520.34;;;7.47;100.00
63006;BME280;53704;52.532;6.426;2022-09-28T04:52:14;99514.81;;;7.48;100.00
63006;BME280;53704;52.532;6.426;2022-09-28T04:54:39;99519.69;;;7.45;100.00
63006;BME280;53704;52.532;6.426;2022-09-28T04:57:04;99522.69;;;7.50;100.00
63006;BME280;53704;52.532;6.426;2022-09-28T04:59:30;99521.19;;;7.47;100.00
63006;BME280;53704;52.532;6.426;2022-09-28T05:01:55;99517.16;;;7.51;100.00
63006;BME280;53704;52.532;6.426;2022-09-28T05:04:21;99524.06;;;7.69;100.00
63006;BME280;53704;52.532;6.426;2022-09-28T05:06:46;99518.38;;;7.40;100.00
63006;BME280;53704;52.532;6.426;2022-09-28T05:09:12;99512.38;;;7.30;100.00
63006;BME280;53704;52.532;6.426;2022-09-28T05:11:38;99515.94;;;7.54;100.00
63006;BME280;53704;52.532;6.426;2022-09-28T05:14:03;99517.69;;;7.47;100.00
63006;BME280;53704;52.532;6.426;2022-09-28T05:16:29;99514.28;;;7.53;100.00
63006;BME280;53704;52.532;6.426;2022-09-28T05:18:58;99517.31;;;7.50;100.00
63006;BME280;53704;52.532;6.426;2022-09-28T05:21:23;99512.50;;;7.45;100.00
63006;BME280;53704;52.532;6.426;2022-09-28T05:23:50;99512.09;;;7.56;99.66
63006;BME280;53704;52.532;6.426;2022-09-28T05:26:16;99520.06;;;7.33;100.00
63006;BME280;53704;52.532;6.426;2022-09-28T05:28:42;99520.41;;;7.30;100.00
63006;BME280;53704;52.532;6.426;2022-09-28T05:31:09;99522.31;;;7.21;100.00
63006;BME280;53704;52.532;6.426;2022-09-28T05:33:34;99520.59;;;7.29;100.00
63006;BME280;53704;52.532;6.426;2022-09-28T05:36:02;99510.63;;;7.46;100.00
63006;BME280;53704;52.532;6.426;2022-09-28T05:38:28;99517.03;;;7.36;100.00
63006;BME280;53704;52.532;6.426;2022-09-28T05:40:54;99513.94;;;7.24;100.00
63006;BME280;53704;52.532;6.426;2022-09-28T05:43:20;99513.78;;;7.49;100.00
63006;BME280;53704;52.532;6.426;2022-09-28T05:45:46;99514.53;;;7.35;100.00
63006;BME280;53704;52.532;6.426;2022-09-28T05:48:11;99521.56;;;7.36;100.00
63006;BME280;53704;52.532;6.426;2022-09-28T05:50:37;99518.84;;;7.44;100.00
63006;BME280;53704;52.532;6.426;2022-09-28T05:53:04;99522.81;;;7.56;100.00
63006;BME280;53704;52.532;6.426;2022-09-28T05:55:31;99522.69;;;7.50;100.00
63006;BME280;53704;52.532;6.426;2022-09-28T05:57:58;99520.41;;;7.61;100.00
63006;BME280;53704;52.532;6.426;2022-09-28T06:00:25;99520.78;;;7.58;100.00
63006;BME280;53704;52.532;6.426;2022-09-28T06:02:58;99518.97;;;7.51;100.00
63006;BME280;53704;52.532;6.426;2022-09-28T06:05:25;99524.28;;;7.59;100.00
63006;BME280;53704;52.532;6.426;2022-09-28T06:07:51;99527.81;;;7.59;100.00
63006;BME280;53704;52.532;6.426;2022-09-28T06:10:16;99524.47;;;7.57;100.00
63006;BME280;53704;52.532;6.426;2022-09-28T06:12:42;99526.41;;;7.72;100.00
63006;BME280;53704;52.532;6.426;2022-09-28T06:15:07;99533.28;;;7.66;100.00
63006;BME280;53704;52.532;6.426;2022-09-28T06:17:33;99533.91;;;7.76;100.00
63006;BME280;53704;52.532;6.426;2022-09-28T06:19:58;99531.00;;;7.86;100.00
63006;BME280;53704;52.532;6.426;2022-09-28T06:22:24;99533.50;;;7.88;100.00
63006;BME280;53704;52.532;6.426;2022-09-28T06:24:49;99541.53;;;7.88;100.00
63006;BME280;53704;52.532;6.426;2022-09-28T06:27:14;99536.66;;;7.91;100.00
63006;BME280;53704;52.532;6.426;2022-09-28T06:29:40;99536.28;;;7.94;100.00
63006;BME280;53704;52.532;6.426;2022-09-28T06:32:05;99546.47;;;7.99;100.00
63006;BME280;53704;52.532;6.426;2022-09-28T06:34:32;99542.78;;;7.46;100.00
63006;BME280;53704;52.532;6.426;2022-09-28T06:36:59;99549.97;;;8.00;100.00
63006;BME280;53704;52.532;6.426;2022-09-28T06:39:24;99551.22;;;8.12;100.00
63006;BME280;53704;52.532;6.426;2022-09-28T06:41:49;99543.59;;;8.47;99.72
63006;BME280;53704;52.532;6.426;2022-09-28T06:44:15;99549.56;;;8.57;98.53
63006;BME280;53704;52.532;6.426;2022-09-28T06:46:40;99554.38;;;8.62;98.99
63006;BME280;53704;52.532;6.426;2022-09-28T06:49:05;99555.69;;;8.81;97.10
63006;BME280;53704;52.532;6.426;2022-09-28T06:51:33;99550.38;;;8.73;97.51
63006;BME280;53704;52.532;6.426;2022-09-28T06:53:59;99559.94;;;8.75;97.15
63006;BME280;53704;52.532;6.426;2022-09-28T06:56:25;99558.25;;;8.74;97.69
63006;BME280;53704;52.532;6.426;2022-09-28T06:58:50;99555.34;;;8.84;97.53
63006;BME280;53704;52.532;6.426;2022-09-28T07:01:15;99559.13;;;8.75;97.04
63006;BME280;53704;52.532;6.426;2022-09-28T07:03:41;99556.47;;;9.04;95.88
63006;BME280;53704;52.532;6.426;2022-09-28T07:06:09;99553.56;;;9.21;95.21
63006;BME280;53704;52.532;6.426;2022-09-28T07:08:35;99557.44;;;9.33;94.63
63006;BME280;53704;52.532;6.426;2022-09-28T07:11:04;99564.47;;;8.75;94.44
63006;BME280;53704;52.532;6.426;2022-09-28T07:13:30;99562.81;;;8.88;94.29
63006;BME280;53704;52.532;6.426;2022-09-28T07:15:59;99565.13;;;9.21;93.87
63006;BME280;53704;52.532;6.426;2022-09-28T07:18:25;99562.53;;;9.28;95.36
63006;BME280;53704;52.532;6.426;2022-09-28T07:20:56;99562.75;;;8.97;94.72
63006;BME280;53704;52.532;6.426;2022-09-28T07:23:23;99569.31;;;8.94;92.69
63006;BME280;53704;52.532;6.426;2022-09-28T07:25:50;99560.41;;;9.09;92.76
63006;BME280;53704;52.532;6.426;2022-09-28T07:28:15;99570.69;;;9.35;93.80
63006;BME280;53704;52.532;6.426;2022-09-28T07:30:45;99562.09;;;9.76;92.42
63006;BME280;53704;52.532;6.426;2022-09-28T07:33:12;99564.69;;;9.69;90.65
63006;BME280;53704;52.532;6.426;2022-09-28T07:35:38;99570.41;;;9.15;92.72
63006;BME280;53704;52.532;6.426;2022-09-28T07:38:07;99578.84;;;9.41;93.44
63006;BME280;53704;52.532;6.426;2022-09-28T07:40:34;99580.47;;;9.57;91.94
63006;BME280;53704;52.532;6.426;2022-09-28T07:43:18;99578.63;;;9.58;90.36
63006;BME280;53704;52.532;6.426;2022-09-28T07:45:48;99577.09;;;9.19;89.19
63006;BME280;53704;52.532;6.426;2022-09-28T07:48:15;99581.53;;;9.27;90.59
63006;BME280;53704;52.532;6.426;2022-09-28T07:50:50;99578.28;;;9.83;91.08
63006;BME280;53704;52.532;6.426;2022-09-28T07:53:17;99586.78;;;10.01;90.64
63006;BME280;53704;52.532;6.426;2022-09-28T07:55:52;99591.84;;;9.74;89.72
63006;BME280;53704;52.532;6.426;2022-09-28T07:58:18;99588.78;;;9.77;89.80
63006;BME280;53704;52.532;6.426;2022-09-28T08:00:45;99592.53;;;10.20;88.41
63006;BME280;53704;52.532;6.426;2022-09-28T08:03:13;99595.03;;;10.00;90.69
63006;BME280;53704;52.532;6.426;2022-09-28T08:05:38;99605.84;;;9.55;91.87
63006;BME280;53704;52.532;6.426;2022-09-28T08:08:05;99605.22;;;10.26;90.28
63006;BME280;53704;52.532;6.426;2022-09-28T08:10:31;99613.41;;;10.18;88.91
63006;BME280;53704;52.532;6.426;2022-09-28T08:12:57;99614.59;;;9.93;89.73
63006;BME280;53704;52.532;6.426;2022-09-28T08:15:25;99619.69;;;10.03;88.51
63006;BME280;53704;52.532;6.426;2022-09-28T08:17:53;99616.78;;;10.41;87.65
63006;BME280;53704;52.532;6.426;2022-09-28T08:20:19;99612.50;;;10.47;86.90
63006;BME280;53704;52.532;6.426;2022-09-28T08:23:06;99611.44;;;10.26;87.65
63006;BME280;53704;52.532;6.426;2022-09-28T08:25:33;99614.53;;;9.72;86.51
63006;BME280;53704;52.532;6.426;2022-09-28T08:28:01;99615.91;;;10.19;88.34
63006;BME280;53704;52.532;6.426;2022-09-28T08:30:27;99622.16;;;10.41;87.32
63006;BME280;53704;52.532;6.426;2022-09-28T08:32:52;99617.69;;;10.48;87.40
63006;BME280;53704;52.532;6.426;2022-09-28T08:35:18;99624.09;;;10.47;88.13
63006;BME280;53704;52.532;6.426;2022-09-28T08:37:49;99623.78;;;10.21;88.96
63006;BME280;53704;52.532;6.426;2022-09-28T08:40:19;99624.31;;;10.74;87.80
63006;BME280;53704;52.532;6.426;2022-09-28T08:42:49;99627.75;;;10.03;88.27
63006;BME280;53704;52.532;6.426;2022-09-28T08:45:28;99629.00;;;9.71;89.59
63006;BME280;53704;52.532;6.426;2022-09-28T08:51:01;99631.47;;;10.24;88.65
63006;BME280;53704;52.532;6.426;2022-09-28T08:59:00;99642.59;;;10.79;86.55
63006;BME280;53704;52.532;6.426;2022-09-28T09:01:32;99643.53;;;10.93;86.78
63006;BME280;53704;52.532;6.426;2022-09-28T09:03:59;99649.41;;;10.53;86.85
63006;BME280;53704;52.532;6.426;2022-09-28T09:10:12;99646.72;;;10.81;86.27
63006;BME280;53704;52.532;6.426;2022-09-28T09:20:47;99657.63;;;10.30;83.15
63006;BME280;53704;52.532;6.426;2022-09-28T09:23:24;99654.50;;;10.70;84.20
63006;BME280;53704;52.532;6.426;2022-09-28T09:26:00;99664.47;;;10.69;86.30
63006;BME280;53704;52.532;6.426;2022-09-28T09:36:33;99665.66;;;10.88;83.48
63006;BME280;53704;52.532;6.426;2022-09-28T09:39:17;99668.13;;;11.46;84.29
63006;BME280;53704;52.532;6.426;2022-09-28T09:47:11;99677.69;;;11.49;83.15
63006;BME280;53704;52.532;6.426;2022-09-28T09:52:24;99677.78;;;12.04;80.70
63006;BME280;53704;52.532;6.426;2022-09-28T09:57:24;99682.13;;;12.05;81.72
63006;BME280;53704;52.532;6.426;2022-09-28T09:59:51;99682.31;;;11.97;81.07
63006;BME280;53704;52.532;6.426;2022-09-28T10:02:28;99677.03;;;11.82;81.92
63006;BME280;53704;52.532;6.426;2022-09-28T10:08:09;99679.84;;;12.02;80.88
63006;BME280;53704;52.532;6.426;2022-09-28T10:10:47;99681.38;;;12.24;78.73
63006;BME280;53704;52.532;6.426;2022-09-28T10:13:13;99679.84;;;11.32;76.91
63006;BME280;53704;52.532;6.426;2022-09-28T10:15:40;99680.44;;;11.62;80.83
63006;BME280;53704;52.532;6.426;2022-09-28T10:18:10;99682.66;;;12.35;78.80
63006;BME280;53704;52.532;6.426;2022-09-28T10:20:38;99685.78;;;12.39;77.85
63006;BME280;53704;52.532;6.426;2022-09-28T10:23:09;99686.84;;;12.51;78.69
63006;BME280;53704;52.532;6.426;2022-09-28T10:25:39;99687.31;;;12.88;77.57
63006;BME280;53704;52.532;6.426;2022-09-28T10:28:13;99683.16;;;12.65;76.33
63006;BME280;53704;52.532;6.426;2022-09-28T10:30:41;99686.47;;;12.67;76.59
63006;BME280;53704;52.532;6.426;2022-09-28T10:33:32;99686.47;;;12.61;72.27
63006;BME280;53704;52.532;6.426;2022-09-28T10:35:59;99682.69;;;12.42;73.32
63006;BME280;53704;52.532;6.426;2022-09-28T10:38:25;99672.91;;;12.34;75.88
63006;BME280;53704;52.532;6.426;2022-09-28T10:40:59;99687.94;;;12.90;74.18
63006;BME280;53704;52.532;6.426;2022-09-28T10:43:35;99685.91;;;12.17;69.47
63006;BME280;53704;52.532;6.426;2022-09-28T10:46:14;99678.34;;;12.54;70.08
63006;BME280;53704;52.532;6.426;2022-09-28T10:48:52;99678.16;;;13.02;73.79
63006;BME280;53704;52.532;6.426;2022-09-28T10:51:19;99677.31;;;12.89;66.95
63006;BME280;53704;52.532;6.426;2022-09-28T10:54:01;99673.81;;;12.88;71.74
63006;BME280;53704;52.532;6.426;2022-09-28T10:56:28;99670.88;;;13.30;70.98
63006;BME280;53704;52.532;6.426;2022-09-28T10:58:59;99672.97;;;13.48;66.38
63006;BME280;53704;52.532;6.426;2022-09-28T11:01:29;99680.34;;;13.86;68.85
63006;BME280;53704;52.532;6.426;2022-09-28T11:04:04;99675.94;;;13.98;69.19
63006;BME280;53704;52.532;6.426;2022-09-28T11:06:37;99670.47;;;13.46;66.83
63006;BME280;53704;52.532;6.426;2022-09-28T11:09:22;99680.84;;;14.15;69.40
63006;BME280;53704;52.532;6.426;2022-09-28T11:11:50;99676.25;;;14.15;68.80
63006;BME280;53704;52.532;6.426;2022-09-28T11:14:36;99682.53;;;12.63;66.47
63006;BME280;53704;52.532;6.426;2022-09-28T11:17:29;99682.34;;;12.98;67.38
63006;BME280;53704;52.532;6.426;2022-09-28T11:25:25;99678.09;;;13.76;73.38
63006;BME280;53704;52.532;6.426;2022-09-28T11:30:54;99669.50;;;13.92;72.25
63006;BME280;53704;52.532;6.426;2022-09-28T11:33:32;99676.47;;;14.20;70.61
63006;BME280;53704;52.532;6.426;2022-09-28T11:38:43;99670.38;;;14.32;69.13
63006;BME280;53704;52.532;6.426;2022-09-28T11:44:46;99671.28;;;14.51;67.51
63006;BME280;53704;52.532;6.426;2022-09-28T11:49:41;99662.50;;;13.71;66.81
63006;BME280;53704;52.532;6.426;2022-09-28T11:52:21;99669.41;;;14.13;68.52
63006;BME280;53704;52.532;6.426;2022-09-28T11:58:03;99672.03;;;14.96;66.99
63006;BME280;53704;52.532;6.426;2022-09-28T12:00:37;99668.69;;;15.01;67.52
63006;BME280;53704;52.532;6.426;2022-09-28T12:03:15;99666.56;;;14.78;66.97
63006;BME280;53704;52.532;6.426;2022-09-28T12:05:58;99673.41;;;14.48;67.50
63006;BME280;53704;52.532;6.426;2022-09-28T12:08:34;99676.38;;;14.34;67.16
63006;BME280;53704;52.532;6.426;2022-09-28T12:11:20;99683.09;;;14.31;69.96
63006;BME280;53704;52.532;6.426;2022-09-28T12:13:49;99686.00;;;13.78;70.08
63006;BME280;53704;52.532;6.426;2022-09-28T12:16:26;99678.91;;;13.77;71.19
63006;BME280;53704;52.532;6.426;2022-09-28T12:19:04;99683.66;;;13.88;70.92
63006;BME280;53704;52.532;6.426;2022-09-28T12:21:35;99688.53;;;14.18;73.39
63006;BME280;53704;52.532;6.426;2022-09-28T12:29:09;99681.63;;;14.28;72.61
63006;BME280;53704;52.532;6.426;2022-09-28T12:31:44;99680.59;;;14.68;73.01
63006;BME280;53704;52.532;6.426;2022-09-28T12:34:13;99676.56;;;15.28;70.67
63006;BME280;53704;52.532;6.426;2022-09-28T12:37:07;99674.31;;;15.25;69.66
63006;BME280;53704;52.532;6.426;2022-09-28T12:42:48;99677.47;;;15.22;67.40
63006;BME280;53704;52.532;6.426;2022-09-28T12:56:36;99687.69;;;16.49;63.63
63006;BME280;53704;52.532;6.426;2022-09-28T12:59:19;99678.94;;;16.17;62.89
63006;BME280;53704;52.532;6.426;2022-09-28T13:01:56;99691.72;;;16.16;62.21
63006;BME280;53704;52.532;6.426;2022-09-28T13:07:33;99685.19;;;16.17;64.72
63006;BME280;53704;52.532;6.426;2022-09-28T13:10:20;99688.50;;;15.64;66.95
63006;BME280;53704;52.532;6.426;2022-09-28T13:15:27;99685.78;;;15.64;67.60
63006;BME280;53704;52.532;6.426;2022-09-28T13:18:27;99693.25;;;15.68;64.68
63006;BME280;53704;52.532;6.426;2022-09-28T13:21:30;99689.63;;;15.37;67.52
63006;BME280;53704;52.532;6.426;2022-09-28T13:24:01;99683.16;;;15.57;67.57
63006;BME280;53704;52.532;6.426;2022-09-28T13:26:35;99682.81;;;15.72;68.07
63006;BME280;53704;52.532;6.426;2022-09-28T13:29:16;99678.47;;;15.89;66.28
63006;BME280;53704;52.532;6.426;2022-09-28T13:31:53;99682.22;;;15.88;65.35
63006;BME280;53704;52.532;6.426;2022-09-28T13:34:26;99686.09;;;15.37;68.38
63006;BME280;53704;52.532;6.426;2022-09-28T13:42:11;99682.75;;;15.97;64.13
63006;BME280;53704;52.532;6.426;2022-09-28T13:50:26;99675.13;;;15.69;66.95
63006;BME280;53704;52.532;6.426;2022-09-28T13:55:46;99675.31;;;15.49;63.44
63006;BME280;53704;52.532;6.426;2022-09-28T14:01:12;99689.50;;;16.06;62.73
63006;BME280;53704;52.532;6.426;2022-09-28T14:04:19;99692.94;;;15.83;65.05
63006;BME280;53704;52.532;6.426;2022-09-28T14:06:53;99695.66;;;15.14;65.95
63006;BME280;53704;52.532;6.426;2022-09-28T14:12:30;99682.97;;;15.08;64.67
63006;BME280;53704;52.532;6.426;2022-09-28T14:20:35;99689.03;;;14.85;67.21
63006;BME280;53704;52.532;6.426;2022-09-28T14:28:55;99700.31;;;14.75;69.27
63006;BME280;53704;52.532;6.426;2022-09-28T14:31:26;99694.66;;;14.45;71.32
63006;BME280;53704;52.532;6.426;2022-09-28T14:33:55;99692.66;;;14.72;69.20
63006;BME280;53704;52.532;6.426;2022-09-28T14:36:24;99686.69;;;14.89;68.35
63006;BME280;53704;52.532;6.426;2022-09-28T14:39:26;99686.88;;;14.62;67.18
63006;BME280;53704;52.532;6.426;2022-09-28T14:42:17;99686.88;;;14.62;70.80
63006;BME280;53704;52.532;6.426;2022-09-28T14:47:39;99696.50;;;14.13;70.05
63006;BME280;53704;52.532;6.426;2022-09-28T14:50:23;99694.09;;;14.36;68.57
63006;BME280;53704;52.532;6.426;2022-09-28T14:52:51;99689.97;;;14.59;65.72
63006;BME280;53704;52.532;6.426;2022-09-28T14:55:26;99687.25;;;14.27;66.97
63006;BME280;53704;52.532;6.426;2022-09-28T14:57:57;99689.72;;;14.35;65.84
63006;BME280;53704;52.532;6.426;2022-09-28T15:00:25;99693.41;;;14.79;68.83
63006;BME280;53704;52.532;6.426;2022-09-28T15:02:58;99696.50;;;14.83;66.72
63006;BME280;53704;52.532;6.426;2022-09-28T15:05:31;99699.34;;;14.24;65.64
63006;BME280;53704;52.532;6.426;2022-09-28T15:08:00;99702.56;;;14.46;68.21
63006;BME280;53704;52.532;6.426;2022-09-28T15:10:29;99699.84;;;14.46;68.30
63006;BME280;53704;52.532;6.426;2022-09-28T15:12:57;99703.88;;;14.30;67.58
63006;BME280;53704;52.532;6.426;2022-09-28T15:15:30;99699.34;;;14.24;68.11
63006;BME280;53704;52.532;6.426;2022-09-28T15:20:45;99699.06;;;14.33;70.45
63006;BME280;53704;52.532;6.426;2022-09-28T15:23:24;99694.13;;;13.71;70.44
63006;BME280;53704;52.532;6.426;2022-09-28T15:25:52;99696.22;;;13.62;71.78
63006;BME280;53704;52.532;6.426;2022-09-28T15:28:19;99704.84;;;13.98;73.41
63006;BME280;53704;52.532;6.426;2022-09-28T15:30:46;99707.44;;;13.79;72.85
63006;BME280;53704;52.532;6.426;2022-09-28T15:33:44;99708.25;;;13.80;73.21
63006;BME280;53704;52.532;6.426;2022-09-28T15:36:30;99716.63;;;13.65;73.64
63006;BME280;53704;52.532;6.426;2022-09-28T15:39:03;99716.28;;;14.06;73.71
63006;BME280;53704;52.532;6.426;2022-09-28T15:41:30;99727.25;;;13.39;74.48
63006;BME280;53704;52.532;6.426;2022-09-28T15:46:37;99731.59;;;13.54;70.29
63006;BME280;53704;52.532;6.426;2022-09-28T15:49:03;99732.81;;;13.31;74.37
63006;BME280;53704;52.532;6.426;2022-09-28T15:51:31;99735.53;;;13.71;73.42
63006;BME280;53704;52.532;6.426;2022-09-28T15:54:16;99733.00;;;13.83;73.68
63006;BME280;53704;52.532;6.426;2022-09-28T15:56:55;99729.84;;;13.93;75.21
63006;BME280;53704;52.532;6.426;2022-09-28T15:59:36;99745.75;;;13.36;75.00